Relevés horaires Kleine Brogel (Belgique)


Relevés horaires à Kleine Brogel - Lundi 01 Avr. 2024
Heure UTC1 Température [°C] Vent [km/h] Hum. [%] Pres.4 [hPa] Visi. [Km] Nébu. [octa] Préc.5 [mm] Cond.
2m. Res. Ros. Dir.2 Vit. Moy. Raf.3
23:00 9.3 7.9 5.8 SSO 9.3 -- 13.0 79 1002.2(1.1/3h) 20 -- -- --
22:00 9.4 9.4 5.3 SSO 3.7 -- 9.3 76 1001.8(1.4/3h) 20 -- -- --
21:00 10.4 10 5.4 SO 5.6 -- 13.0 71 1001.5(1.8/3h) 20 -- -- --
20:00 10.5 10.2 5.2 SO 5.6 -- 11.1 70 1001(1.7/3h) 20 -- -- --
19:00 11.3 11.1 4.9 SO 5.6 -- 11.1 65 1000.3(1.5/3h) 20 -- -- --
18:00 12.7 12.3 4.9 SO 7.4 -- 18.5 59 999.6(1.1/3h) 20 -- trace/12h
--
17:00 13.5 12.4 4.7 SO 13.0 -- 18.5 55 999.2(0.6/3h) 20 -- -- --
16:00 14.2 13.3 4.7 SO 13.0 -- 18.5 53 998.7(0.2/3h) 20 -- -- --
15:00 13.8 13 5.2 SO 11.1 -- 16.7 56 998.4(0.6/3h) 20 -- -- --
14:00 13.8 13.3 5.9 SO 9.3 -- 16.7 59 998.5(1.0/3h) 20 -- -- --
13:00 11.9 10.7 6.2 SO 11.1 -- 16.7 68 998.5(1.7/3h) 20 -- -- --
12:00 11.3 10 5.5 OSO 11.1 -- 16.7 67 997.8(1.6/3h) 20 -- trace/6h
NA
11:00 10.7 9.6 6.4 OSO 9.3 -- 14.8 75 997.5(2.3/3h) 20 -- -- --
10:00 9.8 8.9 7.3 OSO 7.4 -- 13.0 84 996.8(2.1/3h) 20 -- -- --
09:00 9.2 8.2 7.0 OSO 7.4 -- 14.8 86 996.3(2.0/3h) 20 -- -- NA
08:00 9.1 8.1 7.4 OSO 7.4 -- 13.0 89 995.1(1.6/3h) 20 -- -- --
07:00 9.0 8 7.4 SO 7.4 -- 9.3 90 994.6(1.2/3h) 20 -- -- NA
06:00 8.7 8.7 7.1 SO 3.7 -- 7.4 90 994.2(0.7/3h) 20 -- 0.1/12h
Il y a une bruine faible et continue à la station au moment de l'observation
05:00 8.4 8.4 6.7 NNO 1.9 -- 3.7 89 993.5(0.0/3h) 20 -- -- --
04:00 8.3 8.3 6.8 NNO 1.9 -- 3.7 90 993.3(0.0/3h) 20 -- -- --
03:00 7.8 7.8 6.7 NNO 1.9 -- 7.4 93 993.5(-0.6/3h) 11 -- -- --
02:00 8.1 8.1 6.6 NNO 1.9 -- 3.7 90 993.5(-0.6/3h) 20 -- -- --
01:00 8.8 8.8 6.9 NNO 1.9 -- 7.4 88 993.2(-0.6/3h) 20 -- -- --
00:00 9.1 9.1 7.2 S 3.7 -- 7.4 88 994(0.0/3h) 20 -- trace/6h
NA

1 Coordinated Universal Time. Actuellement il est 02:00 locale et 00:00 UTC.

2 Le vent souffle depuis la direction indiquée vers la direction oposée.

3 Les rafales max. sont disponible 40 min après l'heure du relevé.

4 Pour les stations d'altitude (plus de 600m) le géopotentiel du niveau le plus proche de la pression obligatoire est indiqué.

5 Les stations disposant d'un diffuseur peuvent indiquer "trace". Cela signifie que des précipitations ont touchés le sol mais que la quantité est inférieure à 0.1 mm.

Récapitulatif de la journée
Température [°C] Vent [km/h] Ensoleillement4 [h] Precipitations totale5 [mm] Pression [Hpa]
Min1 Max.2 Moy.3 Max. Min Max.
7.0 15.1 0 18.5 0 h 0 min 0 993.2 1002.2

1 Température minimale relevée entre 18:00 UTC la veille et 18:00 UTC le jour donné.

2 Température maximale relevée entre 06:00 UTC le jour donné et 06:00 UTC le lendemain.

3 Vent moyen de la journée basé sur les relevés horaires.

4 Ensoleillement en heures relevé entre 06:00 UTC la veille et 06:00 UTC le jour donné.

5 Précipitations totales tombées entre 06:00 UTC la jour donné et 06:00 UTC le lendemain.

Graphiques horaires